createdAt,value
2023-09-17T04:01:30.574Z,100245.29
2023-09-17T04:03:58.049Z,100240.42
2023-09-17T04:06:25.683Z,100242.93
2023-09-17T04:08:52.623Z,100246.50
2023-09-17T04:11:20.081Z,100244.52
2023-09-17T04:13:47.480Z,100244.19
2023-09-17T04:16:17.116Z,100246.89
2023-09-17T04:18:44.394Z,100254.14
2023-09-17T04:21:11.253Z,100256.41
2023-09-17T04:23:38.077Z,100256.05
2023-09-17T04:26:05.027Z,100265.05
2023-09-17T04:28:32.154Z,100261.86
2023-09-17T04:30:59.213Z,100267.02
2023-09-17T04:33:26.428Z,100266.41
2023-09-17T04:35:57.942Z,100266.52
2023-09-17T04:38:25.184Z,100264.09
2023-09-17T04:40:52.169Z,100271.08
2023-09-17T04:43:20.981Z,100277.79
2023-09-17T04:45:49.152Z,100277.86
2023-09-17T04:48:31.612Z,100273.89
2023-09-17T04:50:58.683Z,100284.95
2023-09-17T04:53:26.006Z,100283.48
2023-09-17T04:55:55.125Z,100283.85
2023-09-17T04:58:26.299Z,100287.85
2023-09-17T05:00:56.490Z,100290.65
2023-09-17T05:03:23.863Z,100286.86
2023-09-17T05:05:51.789Z,100288.77
2023-09-17T05:08:19.176Z,100290.70
2023-09-17T05:10:46.698Z,100292.55
2023-09-17T05:13:13.644Z,100295.27
2023-09-17T05:15:41.590Z,100294.48
2023-09-17T05:18:12.156Z,100293.70
2023-09-17T05:20:45.075Z,100297.46
2023-09-17T05:23:13.155Z,100301.23
2023-09-17T05:25:40.382Z,100305.23
2023-09-17T05:28:08.200Z,100303.42
2023-09-17T05:30:35.685Z,100300.84
2023-09-17T05:33:04.964Z,100302.80
2023-09-17T05:35:33.339Z,100301.59
2023-09-17T05:38:00.956Z,100299.57
2023-09-17T05:40:28.139Z,100300.42
2023-09-17T05:43:00.047Z,100303.18
2023-09-17T05:45:27.711Z,100302.92
2023-09-17T05:47:55.313Z,100308.27
2023-09-17T05:50:23.753Z,100309.58
2023-09-17T05:52:51.087Z,100310.54
2023-09-17T05:55:18.367Z,100311.25
2023-09-17T05:57:47.048Z,100314.73
2023-09-17T06:00:14.700Z,100319.54
2023-09-17T06:02:43.309Z,100318.30
2023-09-17T06:05:12.202Z,100319.88
2023-09-17T06:07:39.207Z,100322.89
2023-09-17T06:10:07.390Z,100317.71
2023-09-17T06:12:34.543Z,100320.66
2023-09-17T06:15:03.343Z,100319.63
2023-09-17T06:17:30.330Z,100318.95
2023-09-17T06:19:57.486Z,100316.41
2023-09-17T06:22:26.103Z,100320.13
2023-09-17T06:24:56.850Z,100320.14
2023-09-17T06:27:24.076Z,100321.71
2023-09-17T06:29:51.492Z,100323.13
2023-09-17T06:32:20.472Z,100326.24
2023-09-17T06:34:48.145Z,100324.36
2023-09-17T06:37:16.280Z,100325.43
2023-09-17T06:39:43.849Z,100331.26
2023-09-17T06:42:12.244Z,100330.27
2023-09-17T06:44:40.508Z,100325.77
2023-09-17T06:47:08.964Z,100322.48
2023-09-17T06:49:36.365Z,100318.23
2023-09-17T06:52:04.104Z,100317.71
2023-09-17T06:54:31.670Z,100319.25
2023-09-17T06:56:58.951Z,100319.72
2023-09-17T06:59:27.891Z,100319.39
2023-09-17T07:02:10.423Z,100302.23
2023-09-17T07:04:38.547Z,100329.65
2023-09-17T07:07:07.622Z,100325.10
2023-09-17T07:09:36.778Z,100326.01
2023-09-17T07:12:05.502Z,100328.69
2023-09-17T07:14:34.110Z,100328.69
2023-09-17T07:17:02.588Z,100323.96
2023-09-17T07:19:35.455Z,100329.04
2023-09-17T07:22:13.150Z,100331.85
2023-09-17T07:24:42.922Z,100332.34
2023-09-17T07:27:11.420Z,100337.47
2023-09-17T07:29:38.971Z,100336.92
2023-09-17T07:32:08.045Z,100334.98
2023-09-17T07:34:37.052Z,100336.23
2023-09-17T07:37:05.542Z,100338.45
2023-09-17T07:39:32.933Z,100334.55
2023-09-17T07:42:00.236Z,100338.06
2023-09-17T07:44:27.579Z,100338.48
2023-09-17T07:46:55.868Z,100339.34
2023-09-17T07:49:27.852Z,100342.74
2023-09-17T07:51:57.444Z,100342.77
2023-09-17T07:54:25.300Z,100349.38
2023-09-17T07:56:53.174Z,100351.15
2023-09-17T07:59:20.441Z,100355.39
2023-09-17T08:01:51.205Z,100348.67
2023-09-17T08:04:18.795Z,100349.80
2023-09-17T08:06:47.823Z,100346.23
2023-09-17T08:09:16.086Z,100345.09
2023-09-17T08:11:44.470Z,100346.65
2023-09-17T08:14:12.165Z,100342.67
2023-09-17T08:16:40.267Z,100339.69
2023-09-17T08:19:08.931Z,100340.48
2023-09-17T08:21:36.955Z,100337.16
2023-09-17T08:24:06.629Z,100337.85
2023-09-17T08:26:35.054Z,100335.89
2023-09-17T08:29:06.273Z,100336.91
2023-09-17T08:31:35.514Z,100333.23
2023-09-17T08:34:04.298Z,100336.43
2023-09-17T08:36:33.266Z,100337.45
2023-09-17T08:39:00.316Z,100336.35
2023-09-17T08:41:28.596Z,100337.83
2023-09-17T08:43:56.321Z,100335.54
2023-09-17T08:46:27.477Z,100337.84
2023-09-17T08:48:55.704Z,100339.67
2023-09-17T08:51:25.407Z,100333.17
2023-09-17T08:54:18.376Z,100333.41
2023-09-17T08:56:47.132Z,100331.42
2023-09-17T08:59:22.986Z,100331.94
2023-09-17T09:01:52.593Z,100333.23
2023-09-17T09:04:23.494Z,100331.58
2023-09-17T09:06:52.789Z,100333.81
2023-09-17T09:09:24.530Z,100329.75
2023-09-17T09:11:53.204Z,100334.85
2023-09-17T09:14:21.866Z,100333.83
2023-09-17T09:16:56.879Z,100331.91
2023-09-17T09:19:24.983Z,100332.20
2023-09-17T09:21:56.258Z,100329.05
2023-09-17T09:24:35.693Z,100327.35
2023-09-17T09:27:06.527Z,100325.04
2023-09-17T09:29:36.850Z,100325.30
2023-09-17T09:32:05.630Z,100326.33
2023-09-17T09:34:33.101Z,100323.69
2023-09-17T09:37:04.881Z,100326.39
2023-09-17T09:39:32.888Z,100322.91
2023-09-17T09:42:00.721Z,100316.62
2023-09-17T09:44:31.173Z,100314.70
2023-09-17T09:47:00.066Z,100315.23
2023-09-17T09:49:27.918Z,100316.70
2023-09-17T09:51:59.740Z,100314.64
2023-09-17T09:54:26.632Z,100312.44
2023-09-17T09:56:53.623Z,100310.05
2023-09-17T09:59:21.057Z,100314.79
2023-09-17T10:01:48.460Z,100314.13
2023-09-17T10:04:15.899Z,100314.84
2023-09-17T10:06:43.566Z,100313.51
2023-09-17T10:09:11.634Z,100315.00
2023-09-17T10:11:39.464Z,100313.89
2023-09-17T10:14:07.314Z,100310.41
2023-09-17T10:16:38.874Z,100311.39
2023-09-17T10:19:09.223Z,100305.75
2023-09-17T10:21:39.091Z,100310.65
2023-09-17T10:24:09.311Z,100302.94
2023-09-17T10:26:43.058Z,100306.90
2023-09-17T10:29:12.265Z,100301.53
2023-09-17T10:31:47.141Z,100301.27
2023-09-17T10:34:20.028Z,100298.96
2023-09-17T10:36:51.173Z,100298.67
2023-09-17T10:39:20.541Z,100299.73
2023-09-17T10:41:50.745Z,100301.96
2023-09-17T10:44:20.992Z,100301.09
2023-09-17T10:46:51.384Z,100302.23
2023-09-17T10:49:26.754Z,100301.00
2023-09-17T10:51:59.193Z,100296.21
2023-09-17T10:54:30.986Z,100298.19
2023-09-17T10:57:07.202Z,100298.30
2023-09-17T10:59:39.808Z,100298.41
2023-09-17T11:02:16.972Z,100303.27
2023-09-17T11:04:46.578Z,100301.83
2023-09-17T11:07:21.322Z,100302.56
2023-09-17T11:09:51.878Z,100298.76
2023-09-17T11:12:24.990Z,100302.25
2023-09-17T11:15:00.199Z,100298.77
2023-09-17T11:17:37.483Z,100295.10
2023-09-17T11:20:17.440Z,100292.41
2023-09-17T11:22:57.208Z,100294.70
2023-09-17T11:25:43.923Z,100293.23
2023-09-17T11:28:18.103Z,100291.69
2023-09-17T11:31:02.359Z,100285.32
2023-09-17T11:33:37.780Z,100285.75
2023-09-17T11:36:08.639Z,100284.67
2023-09-17T11:38:36.324Z,100285.14
2023-09-17T11:41:38.310Z,100282.83
2023-09-17T11:44:12.382Z,100283.89
2023-09-17T11:46:47.050Z,100280.40
2023-09-17T11:49:19.624Z,100280.69
2023-09-17T11:51:58.767Z,100283.00
2023-09-17T11:54:39.548Z,100283.76
2023-09-17T11:57:08.902Z,100287.00
2023-09-17T11:59:40.260Z,100285.34
2023-09-17T12:02:09.516Z,100286.38
2023-09-17T12:04:42.395Z,100288.13
2023-09-17T12:07:14.272Z,100281.73
2023-09-17T12:10:04.004Z,100292.94
2023-09-17T12:12:36.113Z,100287.23
2023-09-17T12:15:14.408Z,100286.38
2023-09-17T12:17:45.845Z,100287.69
2023-09-17T12:21:02.550Z,100287.95
2023-09-17T12:24:07.147Z,100294.13
2023-09-17T12:27:25.920Z,100291.95
2023-09-17T12:29:57.377Z,100288.95
2023-09-17T12:32:29.612Z,100290.96
2023-09-17T12:34:59.578Z,100290.94
2023-09-17T12:37:28.715Z,100293.27
2023-09-17T12:39:57.277Z,100289.95
2023-09-17T12:42:25.768Z,100291.20
2023-09-17T12:44:55.107Z,100287.96
2023-09-17T12:47:25.627Z,100285.70
2023-09-17T12:49:56.452Z,100284.95
2023-09-17T12:52:25.058Z,100284.55
2023-09-17T12:54:54.330Z,100281.84
2023-09-17T12:57:23.415Z,100282.13
2023-09-17T12:59:51.837Z,100284.73
2023-09-17T13:02:29.494Z,100284.64
2023-09-17T13:04:57.925Z,100283.38
2023-09-17T13:07:30.900Z,100285.36
2023-09-17T13:09:59.723Z,100285.14
2023-09-17T13:12:28.390Z,100286.23
2023-09-17T13:14:56.533Z,100286.27
2023-09-17T13:17:27.037Z,100290.41
2023-09-17T13:19:56.984Z,100286.34
2023-09-17T13:22:24.472Z,100285.99
2023-09-17T13:24:51.817Z,100287.67
2023-09-17T13:27:20.563Z,100282.15
2023-09-17T13:29:54.324Z,100286.15
2023-09-17T13:32:22.023Z,100283.77
2023-09-17T13:34:51.034Z,100280.31
2023-09-17T13:37:19.149Z,100279.31
2023-09-17T13:39:53.097Z,100274.38
2023-09-17T13:42:21.988Z,100273.77
2023-09-17T13:44:50.991Z,100271.77
2023-09-17T13:47:19.548Z,100274.15
2023-09-17T13:49:48.206Z,100270.54
2023-09-17T13:52:16.965Z,100263.25
2023-09-17T13:54:44.945Z,100262.13
2023-09-17T13:57:13.357Z,100255.75
2023-09-17T13:59:41.840Z,100255.38
2023-09-17T14:02:10.465Z,100257.25
2023-09-17T14:04:39.121Z,100258.52
2023-09-17T14:07:07.386Z,100259.87
2023-09-17T14:09:35.292Z,100265.00
2023-09-17T14:12:02.653Z,100260.20
2023-09-17T14:14:29.919Z,100259.23
2023-09-17T14:16:57.909Z,100254.36
2023-09-17T14:19:26.198Z,100252.22
2023-09-17T14:21:53.984Z,100252.13
2023-09-17T14:24:21.681Z,100253.59
2023-09-17T14:26:51.636Z,100249.00
2023-09-17T14:29:23.366Z,100248.25
2023-09-17T14:31:52.233Z,100246.58
2023-09-17T14:34:20.742Z,100250.29
2023-09-17T14:36:48.602Z,100247.35
2023-09-17T14:39:16.678Z,100249.04
2023-09-17T14:41:44.973Z,100249.51
2023-09-17T14:44:13.045Z,100245.85
2023-09-17T14:46:44.796Z,100243.02
2023-09-17T14:49:12.543Z,100244.85
2023-09-17T14:51:39.998Z,100242.59
2023-09-17T14:54:11.737Z,100240.51
2023-09-17T14:56:39.594Z,100239.77
2023-09-17T14:59:06.564Z,100242.58
2023-09-17T15:01:58.566Z,100240.95
2023-09-17T15:04:22.366Z,100237.00
2023-09-17T15:06:51.395Z,100221.02
2023-09-17T15:09:20.445Z,100243.52
2023-09-17T15:11:49.480Z,100245.79
2023-09-17T15:14:20.076Z,100245.42
2023-09-17T15:16:51.328Z,100240.48
2023-09-17T15:19:21.160Z,100239.30
2023-09-17T15:21:49.983Z,100241.13
2023-09-17T15:24:20.548Z,100242.93
2023-09-17T15:26:50.115Z,100245.23
2023-09-17T15:29:17.787Z,100244.95
2023-09-17T15:31:53.077Z,100242.51
2023-09-17T15:34:29.214Z,100237.88
2023-09-17T15:37:07.684Z,100238.48
2023-09-17T15:39:36.824Z,100239.77
2023-09-17T15:42:08.563Z,100240.57
2023-09-17T15:44:38.276Z,100241.17
2023-09-17T15:47:06.162Z,100242.78
2023-09-17T15:49:33.381Z,100242.82
2023-09-17T15:52:02.045Z,100245.02
2023-09-17T15:54:31.403Z,100243.61
2023-09-17T15:56:59.030Z,100247.09
2023-09-17T15:59:27.304Z,100249.77
2023-09-17T16:01:55.629Z,100248.04
2023-09-17T16:04:24.449Z,100244.27
2023-09-17T16:06:52.136Z,100244.96
2023-09-17T16:09:20.750Z,100245.66
2023-09-17T16:11:48.397Z,100245.40
2023-09-17T16:14:16.093Z,100250.66
2023-09-17T16:16:43.784Z,100248.19
2023-09-17T16:19:13.830Z,100244.94
2023-09-17T16:21:42.549Z,100243.03
2023-09-17T16:24:12.153Z,100239.21
2023-09-17T16:26:41.732Z,100241.27
2023-09-17T16:29:11.964Z,100237.73
2023-09-17T16:31:42.606Z,100236.38
2023-09-17T16:34:12.556Z,100235.33
2023-09-17T16:36:46.978Z,100235.52
2023-09-17T16:39:15.924Z,100237.20
2023-09-17T16:41:43.885Z,100245.16
2023-09-17T16:44:11.062Z,100242.32
2023-09-17T16:46:39.260Z,100245.69
2023-09-17T16:49:07.715Z,100240.98
2023-09-17T16:51:42.240Z,100242.05
2023-09-17T16:54:10.407Z,100238.20
2023-09-17T16:56:40.512Z,100238.23
2023-09-17T16:59:09.164Z,100241.61
2023-09-17T17:01:36.629Z,100240.27
2023-09-17T17:04:04.444Z,100237.20
2023-09-17T17:06:32.443Z,100239.85
2023-09-17T17:09:00.053Z,100239.87
2023-09-17T17:11:27.301Z,100236.83
2023-09-17T17:13:55.727Z,100243.59
2023-09-17T17:16:24.343Z,100244.89
2023-09-17T17:18:51.924Z,100243.79
2023-09-17T17:21:19.646Z,100250.06
2023-09-17T17:23:51.685Z,100249.66
2023-09-17T17:26:20.644Z,100252.48
2023-09-17T17:28:48.668Z,100252.13
2023-09-17T17:31:16.815Z,100251.64
2023-09-17T17:33:45.369Z,100254.02
2023-09-17T17:36:13.748Z,100253.81
2023-09-17T17:38:43.035Z,100249.86
2023-09-17T17:41:10.840Z,100262.39
2023-09-17T17:43:39.925Z,100263.92
2023-09-17T17:46:07.996Z,100269.48
2023-09-17T17:48:37.189Z,100271.63
2023-09-17T17:51:07.635Z,100272.11
2023-09-17T17:53:36.943Z,100273.44
2023-09-17T17:56:07.649Z,100275.38
2023-09-17T17:58:36.271Z,100281.11
2023-09-17T18:01:05.994Z,100282.75
2023-09-17T18:03:34.298Z,100286.74
2023-09-17T18:06:03.963Z,100289.77
2023-09-17T18:08:32.717Z,100295.70
2023-09-17T18:11:01.958Z,100295.94
2023-09-17T18:13:37.580Z,100297.52
2023-09-17T18:16:09.159Z,100301.94
2023-09-17T18:18:38.007Z,100298.64
2023-09-17T18:21:08.920Z,100300.91
2023-09-17T18:23:39.189Z,100302.98
2023-09-17T18:26:07.885Z,100300.40
2023-09-17T18:28:35.513Z,100302.58
2023-09-17T18:31:03.335Z,100300.73
2023-09-17T18:33:33.878Z,100295.66
2023-09-17T18:36:03.013Z,100287.00
2023-09-17T18:38:31.000Z,100290.86
2023-09-17T18:40:58.772Z,100295.41
2023-09-17T18:43:27.587Z,100296.41
2023-09-17T18:45:56.586Z,100292.61
2023-09-17T18:48:28.397Z,100290.50
2023-09-17T18:50:57.101Z,100287.70
2023-09-17T18:53:25.639Z,100293.13
2023-09-17T18:55:55.002Z,100296.67
2023-09-17T18:58:23.634Z,100297.36
2023-09-17T19:00:51.604Z,100298.54
2023-09-17T19:03:21.930Z,100300.05
2023-09-17T19:05:50.650Z,100296.66
2023-09-17T19:08:19.182Z,100301.02
2023-09-17T19:10:48.833Z,100295.55
2023-09-17T19:13:18.142Z,100292.33
2023-09-17T19:15:46.937Z,100291.51
2023-09-17T19:18:17.894Z,100293.86
2023-09-17T19:20:47.407Z,100291.95
2023-09-17T19:23:16.277Z,100291.12
2023-09-17T19:25:45.037Z,100289.05
2023-09-17T19:28:13.202Z,100286.93
2023-09-17T19:30:40.961Z,100284.59
2023-09-17T19:33:09.114Z,100286.35
2023-09-17T19:35:37.398Z,100285.55
2023-09-17T19:38:06.111Z,100284.55
2023-09-17T19:40:33.561Z,100284.25
2023-09-17T19:43:01.426Z,100285.02
2023-09-17T19:45:29.256Z,100280.29
2023-09-17T19:47:56.904Z,100280.31
2023-09-17T19:50:25.069Z,100274.65
2023-09-17T19:52:56.323Z,100273.27
2023-09-17T19:55:26.968Z,100272.09
2023-09-17T19:57:55.104Z,100267.91
2023-09-17T20:00:23.908Z,100263.89
2023-09-17T20:02:53.336Z,100264.65
2023-09-17T20:05:21.931Z,100260.63
2023-09-17T20:07:51.305Z,100254.40
2023-09-17T20:10:21.734Z,100251.48
2023-09-17T20:12:50.187Z,100247.64
2023-09-17T20:15:18.856Z,100244.42
2023-09-17T20:17:47.254Z,100241.85
2023-09-17T20:20:15.976Z,100242.05
2023-09-17T20:22:46.238Z,100235.66
2023-09-17T20:25:16.407Z,100236.11
2023-09-17T20:27:54.121Z,100239.31
2023-09-17T20:30:21.626Z,100239.95
2023-09-17T20:32:49.400Z,100239.55
2023-09-17T20:35:17.947Z,100244.07
2023-09-17T20:37:45.924Z,100242.04
2023-09-17T20:40:13.408Z,100241.15
2023-09-17T20:42:41.910Z,100244.63
2023-09-17T20:45:11.520Z,100239.67
2023-09-17T20:47:39.119Z,100244.85
2023-09-17T20:50:08.324Z,100244.04
2023-09-17T20:52:37.555Z,100242.34
2023-09-17T20:55:06.351Z,100237.88
2023-09-17T20:57:33.905Z,100237.08
2023-09-17T21:00:05.759Z,100237.41
2023-09-17T21:02:33.620Z,100231.17
2023-09-17T21:05:02.584Z,100227.45
2023-09-17T21:07:29.869Z,100228.23
2023-09-17T21:09:58.991Z,100224.61
2023-09-17T21:12:28.570Z,100227.94
2023-09-17T21:14:56.260Z,100224.77
2023-09-17T21:17:23.429Z,100228.66
2023-09-17T21:19:51.164Z,100231.82
2023-09-17T21:22:18.195Z,100233.08
2023-09-17T21:24:45.960Z,100232.41
2023-09-17T21:27:13.319Z,100232.58
2023-09-17T21:29:40.573Z,100231.43
2023-09-17T21:32:07.453Z,100233.85
2023-09-17T21:34:34.424Z,100231.23
2023-09-17T21:37:02.736Z,100229.18
2023-09-17T21:39:31.111Z,100229.45
2023-09-17T21:41:58.671Z,100227.89
2023-09-17T21:44:25.566Z,100223.77
2023-09-17T21:46:55.977Z,100215.27
2023-09-17T21:49:23.489Z,100220.02
2023-09-17T21:51:50.551Z,100220.09
2023-09-17T21:54:17.987Z,100218.92
2023-09-17T21:56:50.491Z,100219.29
2023-09-17T21:59:17.689Z,100218.23
2023-09-17T22:01:48.015Z,100217.42
2023-09-17T22:04:15.710Z,100217.01
2023-09-17T22:06:43.070Z,100217.05
2023-09-17T22:09:10.632Z,100217.22
2023-09-17T22:11:37.785Z,100219.34
2023-09-17T22:14:05.697Z,100213.42
2023-09-17T22:16:36.163Z,100208.23
2023-09-17T22:19:03.847Z,100204.11
2023-09-17T22:21:30.786Z,100201.79
2023-09-17T22:23:57.742Z,100201.80
2023-09-17T22:26:24.817Z,100198.80
2023-09-17T22:28:52.242Z,100200.44
2023-09-17T22:31:21.904Z,100197.43
2023-09-17T22:33:50.828Z,100197.13
2023-09-17T22:36:17.786Z,100191.84
2023-09-17T22:38:46.668Z,100193.86
2023-09-17T22:41:20.801Z,100190.58
2023-09-17T22:43:49.986Z,100196.31
2023-09-17T22:46:18.722Z,100190.86
2023-09-17T22:48:50.603Z,100191.02
2023-09-17T22:51:19.630Z,100191.11
2023-09-17T22:53:47.793Z,100191.48
2023-09-17T22:56:15.045Z,100188.56
2023-09-17T22:58:42.106Z,100191.21
